createdAt,value
2024-02-19T00:01:54.937Z,89.02
2024-02-19T00:05:01.800Z,89.68
2024-02-19T00:08:10.576Z,90.43
2024-02-19T00:11:18.082Z,89.81
2024-02-19T00:14:27.775Z,89.83
2024-02-19T00:17:38.522Z,91.18
2024-02-19T00:20:45.993Z,89.50
2024-02-19T00:23:53.170Z,90.35
2024-02-19T00:26:59.970Z,89.69
2024-02-19T00:30:09.521Z,89.77
2024-02-19T00:33:16.998Z,90.00
2024-02-19T00:36:23.848Z,90.02
2024-02-19T00:39:31.616Z,88.86
2024-02-19T00:42:39.133Z,92.80
2024-02-19T00:45:47.641Z,91.65
2024-02-19T00:48:54.895Z,91.44
2024-02-19T00:52:02.132Z,89.17
2024-02-19T00:55:09.748Z,89.41
2024-02-19T00:58:16.555Z,91.36
2024-02-19T01:01:25.901Z,88.65
2024-02-19T01:04:33.238Z,90.10
2024-02-19T01:07:40.372Z,88.32
2024-02-19T01:10:47.382Z,89.85
2024-02-19T01:13:54.169Z,91.13
2024-02-19T01:17:03.281Z,87.67
2024-02-19T01:20:12.237Z,88.71
2024-02-19T01:23:19.496Z,89.40
2024-02-19T01:26:26.068Z,89.96
2024-02-19T01:29:33.713Z,89.28
2024-02-19T01:32:43.234Z,89.31
2024-02-19T01:35:49.971Z,89.29
2024-02-19T01:38:56.966Z,92.63
2024-02-19T01:42:05.563Z,89.71
2024-02-19T01:45:28.971Z,91.49
2024-02-19T01:48:38.791Z,90.12
2024-02-19T01:51:46.493Z,89.09
2024-02-19T01:54:53.463Z,89.70
2024-02-19T01:58:02.922Z,91.11
2024-02-19T02:01:19.213Z,88.35
2024-02-19T02:04:30.945Z,88.51
2024-02-19T02:07:37.735Z,91.04
2024-02-19T02:10:44.600Z,87.35
2024-02-19T02:13:52.544Z,87.16
2024-02-19T02:16:59.778Z,87.15
2024-02-19T02:20:10.158Z,87.26
2024-02-19T02:23:19.484Z,89.39
2024-02-19T02:26:26.099Z,87.05
2024-02-19T02:29:35.590Z,87.86
2024-02-19T02:32:42.594Z,88.31
2024-02-19T02:35:48.935Z,88.25
2024-02-19T02:38:55.897Z,85.47
2024-02-19T02:42:06.248Z,83.94
2024-02-19T02:45:15.198Z,85.38
2024-02-19T02:48:22.318Z,85.65
2024-02-19T02:51:32.120Z,84.73
2024-02-19T02:55:01.302Z,80.02
2024-02-19T02:58:10.819Z,79.75
2024-02-19T03:01:21.326Z,82.65
2024-02-19T03:04:28.620Z,81.95
2024-02-19T03:07:35.665Z,78.44
2024-02-19T03:10:43.695Z,78.98
2024-02-19T03:13:51.267Z,76.00
2024-02-19T03:17:00.962Z,78.43
2024-02-19T03:20:15.069Z,78.14
2024-02-19T03:23:22.139Z,74.98
2024-02-19T03:29:39.290Z,74.48
2024-02-19T03:32:47.905Z,75.82
2024-02-19T03:35:55.878Z,73.54
2024-02-19T03:39:03.296Z,75.08
2024-02-19T03:42:10.845Z,75.14
2024-02-19T03:45:18.894Z,75.95
2024-02-19T03:48:28.411Z,74.94
2024-02-19T03:51:36.250Z,74.74
2024-02-19T03:54:43.349Z,72.48
2024-02-19T03:57:50.593Z,76.26
2024-02-19T04:00:58.296Z,75.58
2024-02-19T04:04:07.435Z,77.98
2024-02-19T04:07:14.596Z,74.90
2024-02-19T04:10:21.376Z,76.65
2024-02-19T04:13:29.077Z,76.90
2024-02-19T04:16:36.391Z,75.54
2024-02-19T04:19:45.252Z,78.50
2024-02-19T04:22:52.547Z,77.15
2024-02-19T04:25:59.852Z,78.76
2024-02-19T04:29:07.056Z,77.54
2024-02-19T04:32:14.141Z,79.13
2024-02-19T04:35:22.737Z,79.48
2024-02-19T04:38:29.721Z,79.14
2024-02-19T04:41:36.928Z,76.35
2024-02-19T04:44:44.169Z,77.61
2024-02-19T04:47:52.344Z,79.83
2024-02-19T04:51:00.934Z,77.12
2024-02-19T04:54:08.232Z,78.94
2024-02-19T04:57:15.302Z,76.22
2024-02-19T05:00:23.044Z,78.47
2024-02-19T05:03:46.765Z,77.10
2024-02-19T05:06:55.579Z,74.93
2024-02-19T05:10:03.946Z,76.51
2024-02-19T05:13:12.590Z,76.87
2024-02-19T05:16:19.593Z,73.61
2024-02-19T05:19:26.911Z,72.22
2024-02-19T05:22:35.859Z,73.43
2024-02-19T05:25:44.145Z,70.54
2024-02-19T05:28:50.980Z,71.19
2024-02-19T05:32:01.749Z,71.85
2024-02-19T05:35:10.454Z,70.98
2024-02-19T05:38:19.093Z,70.14
2024-02-19T05:41:27.460Z,73.36
2024-02-19T05:44:35.108Z,69.33
2024-02-19T05:47:42.160Z,70.59
2024-02-19T05:50:48.771Z,67.41
2024-02-19T05:53:58.938Z,67.10
2024-02-19T05:57:08.529Z,68.85
2024-02-19T06:00:17.217Z,69.63
2024-02-19T06:03:34.954Z,70.14
2024-02-19T06:06:42.928Z,68.13
2024-02-19T06:09:52.528Z,68.39
2024-02-19T06:13:00.794Z,68.76
2024-02-19T06:16:08.409Z,68.97
2024-02-19T06:19:17.457Z,65.57
2024-02-19T06:22:25.290Z,66.76
2024-02-19T06:25:34.862Z,67.86
2024-02-19T06:28:42.240Z,68.46
2024-02-19T06:31:52.047Z,68.14
2024-02-19T06:34:59.497Z,68.18
2024-02-19T06:38:06.689Z,67.08
2024-02-19T06:41:15.092Z,66.45
2024-02-19T06:44:22.083Z,68.05
2024-02-19T06:47:29.039Z,67.72
2024-02-19T06:50:35.981Z,66.05
2024-02-19T06:53:43.132Z,67.12
2024-02-19T06:56:51.464Z,65.02
2024-02-19T06:59:59.230Z,66.87
2024-02-19T07:03:06.968Z,66.67
2024-02-19T07:06:13.940Z,65.71
2024-02-19T07:09:21.969Z,63.10
2024-02-19T07:12:30.925Z,64.59
2024-02-19T07:15:37.675Z,64.29
2024-02-19T07:18:44.994Z,65.52
2024-02-19T07:21:52.118Z,65.24
2024-02-19T07:25:09.845Z,66.58
2024-02-19T07:28:28.254Z,64.31
2024-02-19T07:31:35.655Z,65.96
2024-02-19T07:34:44.547Z,64.25
2024-02-19T07:37:51.788Z,66.34
2024-02-19T07:40:58.835Z,64.08
2024-02-19T07:44:07.175Z,65.13
2024-02-19T07:47:14.598Z,65.96
2024-02-19T07:50:21.697Z,66.62
2024-02-19T07:53:28.742Z,66.28
2024-02-19T07:56:37.720Z,66.24
2024-02-19T07:59:46.230Z,66.16
2024-02-19T08:02:52.746Z,66.44
2024-02-19T08:05:59.867Z,66.14
2024-02-19T08:09:08.292Z,66.42
2024-02-19T08:12:16.498Z,65.32
2024-02-19T08:15:26.364Z,66.48
2024-02-19T08:18:33.958Z,65.88
2024-02-19T08:21:40.683Z,66.24
2024-02-19T08:24:48.372Z,66.24
2024-02-19T08:27:56.097Z,65.47
2024-02-19T08:31:05.344Z,66.33
2024-02-19T08:34:14.013Z,65.86
2024-02-19T08:37:22.633Z,65.97
2024-02-19T08:40:29.493Z,66.01
2024-02-19T08:43:36.161Z,65.91
2024-02-19T08:46:44.996Z,66.73
2024-02-19T08:49:52.395Z,66.16
2024-02-19T08:52:59.754Z,66.04
2024-02-19T08:56:07.743Z,65.06
2024-02-19T08:59:14.710Z,65.82
2024-02-19T09:02:24.235Z,64.27
2024-02-19T09:05:31.238Z,64.51
2024-02-19T09:08:38.784Z,65.12
2024-02-19T09:11:45.912Z,64.74
2024-02-19T09:14:53.447Z,65.02
2024-02-19T09:18:03.103Z,64.92
2024-02-19T09:21:10.758Z,64.00
2024-02-19T09:24:17.953Z,65.11
2024-02-19T09:27:24.713Z,65.72
2024-02-19T09:30:31.720Z,66.08
2024-02-19T09:33:40.517Z,65.29
2024-02-19T09:36:48.092Z,65.69
2024-02-19T09:40:01.007Z,65.44
2024-02-19T09:43:12.722Z,64.76
2024-02-19T09:46:23.355Z,65.35
2024-02-19T09:49:39.069Z,65.31
2024-02-19T09:52:48.071Z,64.54
2024-02-19T09:56:00.884Z,64.51
2024-02-19T09:59:11.607Z,64.08
2024-02-19T10:02:27.517Z,65.00
2024-02-19T10:05:36.397Z,65.06
2024-02-19T10:08:43.363Z,64.42
2024-02-19T10:11:52.722Z,63.06
2024-02-19T10:15:00.936Z,64.41
2024-02-19T10:18:17.334Z,63.49
2024-02-19T10:21:26.485Z,61.16
2024-02-19T10:24:35.469Z,62.87
2024-02-19T10:27:42.675Z,61.86
2024-02-19T10:30:49.477Z,62.02
2024-02-19T10:33:57.207Z,63.22
2024-02-19T10:37:07.625Z,61.85
2024-02-19T10:40:20.606Z,62.71
2024-02-19T10:43:28.454Z,62.87
2024-02-19T10:46:36.883Z,62.31
2024-02-19T10:49:53.473Z,61.71
2024-02-19T10:53:03.049Z,62.49
2024-02-19T10:56:17.263Z,62.57
2024-02-19T10:59:24.976Z,62.73
2024-02-19T11:02:31.678Z,62.24
2024-02-19T11:05:41.466Z,62.89
2024-02-19T11:08:56.270Z,62.46
2024-02-19T11:12:04.545Z,62.82
2024-02-19T11:15:23.142Z,61.97
2024-02-19T11:18:32.167Z,63.24
2024-02-19T11:21:39.345Z,61.72
2024-02-19T11:24:48.308Z,62.40
2024-02-19T11:27:55.701Z,62.49
2024-02-19T11:31:06.417Z,62.61
2024-02-19T11:34:18.100Z,62.63
2024-02-19T11:37:25.756Z,63.43
2024-02-19T11:40:34.957Z,61.82
2024-02-19T11:43:42.300Z,62.13
2024-02-19T11:46:49.795Z,62.22
2024-02-19T11:49:58.037Z,61.14
2024-02-19T11:53:06.557Z,61.45
2024-02-19T11:56:14.936Z,62.06
2024-02-19T11:59:23.545Z,62.40
2024-02-19T12:02:30.476Z,63.09
2024-02-19T12:05:38.292Z,62.86
2024-02-19T12:08:46.519Z,62.74
2024-02-19T12:11:56.786Z,62.90
2024-02-19T12:15:04.298Z,63.32
2024-02-19T12:18:11.916Z,63.82
2024-02-19T12:21:20.851Z,64.32
2024-02-19T12:24:28.510Z,64.46
2024-02-19T12:27:38.720Z,63.87
2024-02-19T12:30:45.864Z,63.74
2024-02-19T12:33:53.683Z,63.76
2024-02-19T12:37:01.312Z,64.09
2024-02-19T12:40:10.356Z,63.81
2024-02-19T12:43:19.345Z,63.93
2024-02-19T12:46:27.253Z,63.33
2024-02-19T12:49:37.467Z,62.64
2024-02-19T12:52:46.854Z,60.85
2024-02-19T12:55:53.855Z,61.19
2024-02-19T12:59:02.219Z,61.41
2024-02-19T13:02:09.706Z,61.30
2024-02-19T13:05:16.860Z,61.11
2024-02-19T13:08:23.989Z,59.23
2024-02-19T13:11:31.454Z,61.15
2024-02-19T13:14:41.521Z,60.20
2024-02-19T13:17:50.217Z,60.34
2024-02-19T13:20:58.179Z,58.69
2024-02-19T13:24:05.371Z,58.71
2024-02-19T13:27:24.682Z,54.76
2024-02-19T13:30:33.629Z,55.41
2024-02-19T13:33:40.317Z,54.75
2024-02-19T13:36:48.062Z,53.31
2024-02-19T13:39:56.014Z,53.09
2024-02-19T13:43:02.893Z,54.79
2024-02-19T13:46:12.373Z,53.21
2024-02-19T13:49:19.750Z,53.70
2024-02-19T13:52:26.535Z,52.42
2024-02-19T13:55:33.493Z,54.26
2024-02-19T13:58:40.711Z,53.26
2024-02-19T14:01:49.356Z,51.50
2024-02-19T14:04:56.674Z,51.39
2024-02-19T14:08:04.357Z,50.92
2024-02-19T14:11:11.869Z,52.29
2024-02-19T14:14:20.240Z,50.43
2024-02-19T14:17:28.771Z,50.11
2024-02-19T14:20:35.937Z,51.90
2024-02-19T14:23:43.583Z,53.67
2024-02-19T14:26:50.369Z,54.48
2024-02-19T14:29:57.467Z,53.89
2024-02-19T14:33:05.820Z,53.00
2024-02-19T14:36:13.123Z,50.01
2024-02-19T14:39:22.503Z,51.09
2024-02-19T14:42:30.295Z,49.27
2024-02-19T14:45:38.950Z,49.18
2024-02-19T14:48:50.128Z,48.71
2024-02-19T14:51:58.353Z,47.89
2024-02-19T14:55:11.872Z,48.87
2024-02-19T14:58:20.293Z,48.49
2024-02-19T15:01:28.087Z,49.31
2024-02-19T15:04:37.937Z,49.53
2024-02-19T15:07:47.794Z,50.37
2024-02-19T15:10:56.088Z,51.13
2024-02-19T15:14:02.895Z,50.03
2024-02-19T15:17:10.219Z,49.44
2024-02-19T15:20:19.748Z,50.32
2024-02-19T15:23:30.531Z,50.54
2024-02-19T15:26:37.708Z,52.33
2024-02-19T15:29:45.897Z,51.95
2024-02-19T15:32:53.736Z,53.01
2024-02-19T15:36:09.293Z,51.73
2024-02-19T15:39:16.363Z,51.41
2024-02-19T15:42:24.173Z,51.37
2024-02-19T15:45:32.260Z,50.29
2024-02-19T15:48:40.117Z,51.93
2024-02-19T15:51:50.138Z,51.51
2024-02-19T15:54:58.413Z,52.13
2024-02-19T15:58:07.051Z,51.19
2024-02-19T16:01:14.510Z,50.34
2024-02-19T16:04:26.261Z,50.73
2024-02-19T16:07:35.414Z,50.46
2024-02-19T16:10:44.963Z,51.34
2024-02-19T16:13:52.237Z,50.67
2024-02-19T16:16:58.947Z,51.62
2024-02-19T16:20:09.508Z,50.90
2024-02-19T16:23:19.948Z,51.62
2024-02-19T16:26:28.065Z,50.26
2024-02-19T16:29:35.656Z,51.84
2024-02-19T16:32:42.971Z,51.25
2024-02-19T16:35:50.279Z,50.46
2024-02-19T16:38:58.966Z,50.60
2024-02-19T16:42:08.470Z,50.21
2024-02-19T16:45:16.360Z,49.54
2024-02-19T16:48:23.173Z,49.61
2024-02-19T16:51:30.739Z,52.04
2024-02-19T16:54:39.411Z,50.50
2024-02-19T16:57:47.327Z,50.40
2024-02-19T17:00:59.485Z,52.36
2024-02-19T17:04:06.761Z,50.36
2024-02-19T17:07:14.592Z,49.10
2024-02-19T17:10:24.324Z,50.16
2024-02-19T17:13:31.547Z,51.02
2024-02-19T17:16:38.615Z,51.77
2024-02-19T17:19:45.917Z,52.04
2024-02-19T17:22:53.359Z,52.48
2024-02-19T17:26:01.690Z,52.18
2024-02-19T17:29:08.402Z,52.10
2024-02-19T17:32:15.892Z,52.04
2024-02-19T17:35:25.235Z,52.24
2024-02-19T17:38:35.144Z,50.40
2024-02-19T17:41:45.838Z,50.43
2024-02-19T17:44:54.138Z,49.14
2024-02-19T17:48:01.417Z,49.51
2024-02-19T17:51:10.663Z,47.88
2024-02-19T17:54:17.800Z,48.54
2024-02-19T17:57:26.373Z,49.59
2024-02-19T18:00:33.497Z,49.53
2024-02-19T18:03:40.894Z,50.97
2024-02-19T18:06:48.291Z,51.47
2024-02-19T18:09:55.231Z,51.09
2024-02-19T18:13:04.067Z,50.94
2024-02-19T18:16:10.941Z,51.85
2024-02-19T18:19:18.064Z,52.41
2024-02-19T18:22:25.324Z,53.03
2024-02-19T18:25:33.125Z,52.85
2024-02-19T18:28:41.682Z,53.05
2024-02-19T18:31:53.950Z,53.10
2024-02-19T18:35:04.236Z,52.02
2024-02-19T18:38:12.130Z,51.32
2024-02-19T18:41:19.213Z,50.03
2024-02-19T18:44:27.941Z,49.96
2024-02-19T18:47:35.897Z,51.56
2024-02-19T18:50:42.579Z,51.51
2024-02-19T18:53:51.552Z,51.49
2024-02-19T18:57:02.716Z,50.51
2024-02-19T19:00:12.338Z,49.93
2024-02-19T19:03:23.475Z,48.64
2024-02-19T19:06:32.317Z,48.98
2024-02-19T19:09:41.875Z,49.28
2024-02-19T19:12:48.657Z,50.04
2024-02-19T19:15:58.273Z,49.96
2024-02-19T19:19:06.492Z,46.21
2024-02-19T19:22:16.890Z,48.79
2024-02-19T19:25:26.663Z,49.02
2024-02-19T19:28:33.929Z,49.40
2024-02-19T19:31:43.352Z,49.68
2024-02-19T19:34:50.771Z,48.48
2024-02-19T19:37:58.422Z,49.37
2024-02-19T19:41:05.076Z,49.47
2024-02-19T19:44:13.570Z,49.50
2024-02-19T19:47:22.780Z,49.00
2024-02-19T19:50:30.188Z,48.92
2024-02-19T19:53:38.800Z,50.17
2024-02-19T19:56:46.263Z,51.08
2024-02-19T19:59:53.591Z,51.84
2024-02-19T20:03:04.974Z,51.14
2024-02-19T20:06:12.814Z,52.61
2024-02-19T20:09:21.405Z,52.85
2024-02-19T20:12:27.928Z,52.66
2024-02-19T20:15:35.573Z,52.17
2024-02-19T20:18:44.335Z,51.43
2024-02-19T20:21:51.896Z,52.67
2024-02-19T20:24:58.879Z,52.55
2024-02-19T20:28:07.353Z,53.15
2024-02-19T20:31:14.462Z,52.84
2024-02-19T20:34:23.468Z,53.05
2024-02-19T20:37:30.705Z,54.07
2024-02-19T20:40:38.966Z,52.78
2024-02-19T20:43:46.968Z,52.25
2024-02-19T20:46:53.407Z,51.69
2024-02-19T20:50:02.310Z,52.91
2024-02-19T20:53:15.256Z,52.11
2024-02-19T20:56:23.055Z,51.69
2024-02-19T20:59:33.100Z,52.79
2024-02-19T21:02:42.057Z,52.57
2024-02-19T21:05:51.299Z,52.39
2024-02-19T21:08:57.888Z,53.28
2024-02-19T21:12:11.260Z,52.47
2024-02-19T21:15:18.528Z,52.21
2024-02-19T21:18:34.087Z,53.13
2024-02-19T21:21:47.719Z,52.12
2024-02-19T21:24:54.618Z,51.98
2024-02-19T21:28:02.507Z,52.84
2024-02-19T21:31:11.588Z,52.88
2024-02-19T21:34:19.203Z,53.01
2024-02-19T21:37:31.502Z,53.42
2024-02-19T21:40:41.814Z,53.30
2024-02-19T21:43:48.757Z,52.75
2024-02-19T21:46:55.483Z,52.83
2024-02-19T21:50:08.311Z,53.07
2024-02-19T21:53:16.706Z,53.51
2024-02-19T21:56:24.056Z,54.31
2024-02-19T21:59:31.031Z,53.77
2024-02-19T22:02:38.614Z,53.12
2024-02-19T22:05:45.543Z,53.42
2024-02-19T22:08:57.619Z,53.44
2024-02-19T22:12:05.254Z,52.67
2024-02-19T22:15:12.976Z,52.45
2024-02-19T22:18:21.048Z,52.78
2024-02-19T22:21:31.547Z,53.18
2024-02-19T22:24:41.143Z,52.97
2024-02-19T22:27:48.347Z,52.08
2024-02-19T22:30:56.478Z,52.74
2024-02-19T22:34:03.602Z,53.03
2024-02-19T22:37:10.696Z,53.31
2024-02-19T22:40:20.088Z,52.98
2024-02-19T22:43:28.427Z,52.97
2024-02-19T22:46:35.320Z,53.10
2024-02-19T22:49:43.304Z,52.90
2024-02-19T22:52:51.072Z,52.05
2024-02-19T22:55:59.880Z,52.34
2024-02-19T22:59:14.701Z,51.98
2024-02-19T23:02:27.970Z,51.13
2024-02-19T23:05:35.366Z,50.55
2024-02-19T23:08:42.449Z,52.97
2024-02-19T23:11:51.044Z,51.60
2024-02-19T23:14:57.957Z,49.66
2024-02-19T23:18:06.323Z,50.90
2024-02-19T23:21:14.696Z,49.20
2024-02-19T23:24:21.045Z,51.41
2024-02-19T23:27:29.013Z,47.30
2024-02-19T23:30:38.676Z,47.26
2024-02-19T23:33:45.616Z,48.32
2024-02-19T23:36:53.488Z,47.14
2024-02-19T23:40:01.747Z,46.87
2024-02-19T23:43:10.644Z,45.13
2024-02-19T23:46:18.135Z,45.19
2024-02-19T23:49:24.852Z,42.37
2024-02-19T23:52:32.100Z,46.37
2024-02-19T23:55:38.782Z,43.96
2024-02-19T23:58:50.377Z,44.93
